Time;durP1;ratioP1;P1;durP2;ratioP2;P2;SDS_P1;SDS_P2;PMS_P1;PMS_P2;Temp;Humidity;BMP_temperature;BMP_pressure;BME280_temperature;BME280_humidity;BME280_pressure;Samples;Min_cycle;Max_cycle;Signal;HPM_P1;HPM_P2
2023/10/31 00:02:15;;;;;;;7.30;6.60;;;;;;;;;;5022469;28;20424;-62
2023/10/31 00:04:44;;;;;;;6.88;6.28;;;;;;;;;;5024520;28;20495;-62
2023/10/31 00:07:11;;;;;;;7.00;6.30;;;;;;;;;;5018691;28;20493;-62
2023/10/31 00:09:39;;;;;;;7.53;6.82;;;;;;;;;;5022965;28;20463;-62
2023/10/31 00:12:06;;;;;;;8.10;6.80;;;;;;;;;;5020775;28;20443;-62
2023/10/31 00:14:33;;;;;;;8.85;7.47;;;;;;;;;;5023393;28;20509;-62
2023/10/31 00:17:00;;;;;;;8.57;7.68;;;;;;;;;;5022529;28;20514;-62
2023/10/31 00:19:27;;;;;;;8.20;7.40;;;;;;;;;;5021282;28;20512;-62
2023/10/31 00:21:55;;;;;;;7.72;6.93;;;;;;;;;;5023534;28;20406;-62
2023/10/31 00:24:23;;;;;;;8.07;7.25;;;;;;;;;;5022477;28;20421;-62
2023/10/31 00:26:49;;;;;;;7.68;6.90;;;;;;;;;;5020849;28;20798;-62
2023/10/31 00:29:17;;;;;;;7.75;6.95;;;;;;;;;;5023486;28;20465;-62
2023/10/31 00:31:44;;;;;;;8.65;7.22;;;;;;;;;;5017236;28;20475;-62
2023/10/31 00:34:11;;;;;;;8.13;7.32;;;;;;;;;;5027101;28;20414;-60
2023/10/31 00:36:38;;;;;;;8.43;7.63;;;;;;;;;;5023063;28;20467;-62
2023/10/31 00:39:06;;;;;;;7.13;6.43;;;;;;;;;;5024346;28;20756;-62
2023/10/31 00:41:33;;;;;;;6.93;6.23;;;;;;;;;;5022662;28;20479;-62
2023/10/31 00:44:00;;;;;;;6.07;5.50;;;;;;;;;;5026959;28;20708;-61
2023/10/31 00:46:27;;;;;;;10.43;5.40;;;;;;;;;;5021643;28;21010;-62
2023/10/31 00:48:54;;;;;;;7.75;7.05;;;;;;;;;;5020616;28;20539;-60
2023/10/31 00:51:21;;;;;;;7.90;7.10;;;;;;;;;;5023104;28;20490;-61
2023/10/31 00:53:48;;;;;;;7.47;6.63;;;;;;;;;;5021434;28;20440;-61
2023/10/31 00:56:17;;;;;;;5.10;4.60;;;;;;;;;;5026672;28;20414;-62
2023/10/31 00:58:44;;;;;;;8.27;6.25;;;;;;;;;;5022964;28;20483;-62
2023/10/31 01:01:11;;;;;;;5.72;5.22;;;;;;;;;;5021789;28;20415;-62
2023/10/31 01:03:38;;;;;;;4.32;3.92;;;;;;;;;;5022674;28;20411;-62
2023/10/31 01:06:05;;;;;;;4.00;3.70;;;;;;;;;;5021580;28;20415;-60
2023/10/31 01:08:32;;;;;;;4.15;3.75;;;;;;;;;;5020623;28;20412;-59
2023/10/31 01:10:59;;;;;;;4.00;3.60;;;;;;;;;;5021156;28;21075;-61
2023/10/31 01:13:27;;;;;;;3.33;2.95;;;;;;;;;;5023259;28;20410;-62
2023/10/31 01:15:54;;;;;;;5.50;3.40;;;;;;;;;;5020938;28;20412;-62
2023/10/31 01:18:21;;;;;;;3.30;3.00;;;;;;;;;;5020487;28;20845;-62
2023/10/31 01:20:48;;;;;;;3.33;2.70;;;;;;;;;;5022722;28;20415;-62
2023/10/31 01:23:15;;;;;;;4.97;2.97;;;;;;;;;;5018882;28;20514;-61
2023/10/31 01:25:42;;;;;;;4.32;2.70;;;;;;;;;;5023908;28;20448;-62
2023/10/31 01:28:09;;;;;;;3.47;2.83;;;;;;;;;;5026738;28;20792;-62
2023/10/31 01:30:38;;;;;;;3.80;2.50;;;;;;;;;;5021780;28;20417;-62
2023/10/31 01:33:05;;;;;;;3.80;2.97;;;;;;;;;;5023384;28;20480;-61
2023/10/31 01:35:32;;;;;;;4.20;2.90;;;;;;;;;;5022383;28;20475;-62
2023/10/31 01:37:59;;;;;;;4.78;3.00;;;;;;;;;;5019769;28;20953;-61
2023/10/31 01:40:26;;;;;;;5.90;3.30;;;;;;;;;;5021649;28;20479;-62
2023/10/31 01:42:53;;;;;;;5.97;3.63;;;;;;;;;;5019204;28;20416;-62
2023/10/31 01:45:20;;;;;;;6.15;3.92;;;;;;;;;;5015793;28;20412;-62
2023/10/31 01:47:50;;;;;;;5.15;4.53;;;;;;;;;;5020953;28;20959;-61
2023/10/31 01:50:17;;;;;;;6.80;5.30;;;;;;;;;;5022241;28;20411;-61
2023/10/31 01:52:44;;;;;;;7.43;5.93;;;;;;;;;;5024357;28;20417;-61
2023/10/31 01:55:12;;;;;;;7.53;6.35;;;;;;;;;;5020798;28;20415;-62
2023/10/31 01:57:39;;;;;;;7.70;6.35;;;;;;;;;;5022300;28;20426;-62
2023/10/31 02:00:07;;;;;;;8.38;7.00;;;;;;;;;;5020195;28;20462;-62
2023/10/31 02:02:35;;;;;;;7.78;6.85;;;;;;;;;;5020455;28;20845;-62
2023/10/31 02:05:05;;;;;;;7.97;7.00;;;;;;;;;;5020956;28;20415;-62
2023/10/31 02:07:32;;;;;;;8.20;7.00;;;;;;;;;;5017115;28;20829;-62
2023/10/31 02:09:59;;;;;;;8.73;7.17;;;;;;;;;;5021776;28;20414;-62
2023/10/31 02:12:36;;;;;;;8.40;7.13;;;;;;;;;;5019319;28;20445;-62
2023/10/31 02:15:03;;;;;;;10.07;7.03;;;;;;;;;;5021009;28;20856;-62
2023/10/31 02:17:30;;;;;;;8.25;7.18;;;;;;;;;;5021609;28;20438;-62
2023/10/31 02:19:57;;;;;;;8.65;7.32;;;;;;;;;;5019797;28;20815;-63
2023/10/31 02:22:25;;;;;;;9.70;8.25;;;;;;;;;;5020206;28;20420;-62
2023/10/31 02:24:52;;;;;;;9.25;7.72;;;;;;;;;;5021843;28;20411;-61
2023/10/31 02:27:19;;;;;;;9.70;8.10;;;;;;;;;;5019274;28;20416;-61
2023/10/31 02:29:46;;;;;;;11.95;8.45;;;;;;;;;;5019907;28;20416;-61
2023/10/31 02:32:13;;;;;;;10.93;8.43;;;;;;;;;;5021522;28;20476;-63
2023/10/31 02:34:40;;;;;;;9.43;8.18;;;;;;;;;;5019574;28;20409;-62
2023/10/31 02:37:07;;;;;;;8.70;7.80;;;;;;;;;;5019164;28;20416;-62
2023/10/31 02:39:36;;;;;;;9.25;7.88;;;;;;;;;;5021601;28;20427;-62
2023/10/31 02:42:03;;;;;;;10.45;7.82;;;;;;;;;;5019439;28;20412;-63
2023/10/31 02:44:30;;;;;;;8.93;7.20;;;;;;;;;;5019640;28;20407;-62
2023/10/31 02:46:57;;;;;;;9.95;7.20;;;;;;;;;;5021353;28;20743;-62
2023/10/31 02:49:24;;;;;;;8.60;7.30;;;;;;;;;;5017626;28;20417;-63
2023/10/31 02:51:51;;;;;;;10.47;7.23;;;;;;;;;;5014531;28;20516;-63
2023/10/31 02:54:18;;;;;;;8.57;6.97;;;;;;;;;;5009625;28;20480;-60
2023/10/31 02:56:47;;;;;;;7.57;6.78;;;;;;;;;;5014969;28;21157;-62
2023/10/31 02:59:14;;;;;;;8.73;7.10;;;;;;;;;;5017597;28;20479;-63
2023/10/31 03:01:40;;;;;;;12.18;8.60;;;;;;;;;;5018727;28;20415;-62
2023/10/31 03:04:07;;;;;;;13.25;9.35;;;;;;;;;;5016610;28;20464;-63
2023/10/31 03:06:34;;;;;;;14.20;9.90;;;;;;;;;;5017707;28;20464;-63
2023/10/31 03:09:01;;;;;;;14.43;9.95;;;;;;;;;;5023166;28;20946;-62
2023/10/31 03:11:28;;;;;;;12.60;9.82;;;;;;;;;;5018294;28;20413;-62
2023/10/31 03:13:57;;;;;;;16.15;10.10;;;;;;;;;;5019900;28;20418;-63
2023/10/31 03:16:24;;;;;;;14.43;10.65;;;;;;;;;;5021260;28;20449;-63
2023/10/31 03:18:51;;;;;;;16.35;11.10;;;;;;;;;;5021954;28;20586;-62
2023/10/31 03:21:18;;;;;;;19.05;11.05;;;;;;;;;;5024278;28;20423;-62
2023/10/31 03:23:48;;;;;;;20.45;11.60;;;;;;;;;;5029487;28;20439;-62
2023/10/31 03:26:15;;;;;;;16.77;11.27;;;;;;;;;;5021291;28;20442;-62
2023/10/31 03:28:42;;;;;;;17.77;11.65;;;;;;;;;;5025858;28;20451;-62
2023/10/31 03:31:11;;;;;;;18.73;11.73;;;;;;;;;;5022501;28;20493;-62
2023/10/31 03:33:38;;;;;;;19.30;11.90;;;;;;;;;;5025189;28;20949;-63
2023/10/31 03:36:05;;;;;;;19.77;12.05;;;;;;;;;;5023065;28;20413;-62
2023/10/31 03:38:32;;;;;;;20.77;12.70;;;;;;;;;;5024605;28;20975;-63
2023/10/31 03:40:59;;;;;;;18.35;11.95;;;;;;;;;;5014147;28;20422;-61
2023/10/31 03:43:26;;;;;;;17.38;11.32;;;;;;;;;;5021966;28;20557;-62
2023/10/31 03:45:53;;;;;;;17.35;11.88;;;;;;;;;;5017204;28;20421;-61
2023/10/31 03:48:21;;;;;;;17.13;11.07;;;;;;;;;;5022647;28;20541;-62
2023/10/31 03:50:49;;;;;;;16.85;10.32;;;;;;;;;;5022726;28;20773;-61
2023/10/31 03:53:16;;;;;;;18.70;11.48;;;;;;;;;;5022181;28;20433;-60
2023/10/31 03:55:43;;;;;;;18.08;10.43;;;;;;;;;;5021382;28;20431;-61
2023/10/31 03:58:10;;;;;;;18.42;11.43;;;;;;;;;;5022354;28;20437;-63
2023/10/31 04:00:37;;;;;;;16.20;10.03;;;;;;;;;;5022289;28;20787;-62
2023/10/31 04:03:04;;;;;;;15.13;10.38;;;;;;;;;;5021026;28;20566;-61
2023/10/31 04:05:33;;;;;;;18.90;10.77;;;;;;;;;;5023574;28;20568;-62
2023/10/31 04:08:00;;;;;;;14.65;9.90;;;;;;;;;;5022295;28;20479;-62
2023/10/31 04:10:27;;;;;;;14.47;9.90;;;;;;;;;;5023243;28;20878;-61
2023/10/31 04:12:54;;;;;;;15.02;10.10;;;;;;;;;;5022501;28;20417;-61
2023/10/31 04:15:21;;;;;;;18.98;11.15;;;;;;;;;;5021567;28;20420;-62
2023/10/31 04:17:48;;;;;;;17.70;11.38;;;;;;;;;;5020178;28;20415;-62
2023/10/31 04:20:15;;;;;;;17.23;11.20;;;;;;;;;;5021547;28;20440;-62
2023/10/31 04:22:43;;;;;;;22.10;12.07;;;;;;;;;;5022152;28;20424;-63
2023/10/31 04:25:10;;;;;;;16.30;10.68;;;;;;;;;;5023826;28;20901;-62
2023/10/31 04:27:37;;;;;;;17.15;11.35;;;;;;;;;;5021646;28;20427;-62
2023/10/31 04:30:05;;;;;;;21.92;13.88;;;;;;;;;;5021790;28;20490;-61
2023/10/31 04:32:32;;;;;;;20.65;12.27;;;;;;;;;;5023574;28;20419;-62
2023/10/31 04:34:59;;;;;;;20.20;12.63;;;;;;;;;;5021806;28;20424;-63
2023/10/31 04:37:26;;;;;;;23.05;13.23;;;;;;;;;;5024497;28;20799;-63
2023/10/31 04:39:54;;;;;;;22.67;13.80;;;;;;;;;;5020899;28;20451;-62
2023/10/31 04:42:22;;;;;;;19.65;13.13;;;;;;;;;;5023305;28;20411;-63
2023/10/31 04:44:49;;;;;;;21.90;13.07;;;;;;;;;;5023175;28;20418;-60
2023/10/31 04:47:16;;;;;;;21.35;12.15;;;;;;;;;;5020628;28;20413;-61
2023/10/31 04:49:43;;;;;;;21.83;12.33;;;;;;;;;;5023547;28;20465;-63
2023/10/31 04:52:10;;;;;;;19.20;11.98;;;;;;;;;;5018897;28;20782;-63
2023/10/31 04:54:37;;;;;;;19.92;11.75;;;;;;;;;;5023831;28;20465;-62
2023/10/31 04:57:06;;;;;;;18.47;10.70;;;;;;;;;;5020918;28;20417;-63
2023/10/31 04:59:33;;;;;;;15.27;10.50;;;;;;;;;;5020238;28;20433;-62
2023/10/31 05:02:00;;;;;;;17.35;10.40;;;;;;;;;;5019879;28;20903;-60
2023/10/31 05:04:27;;;;;;;13.73;9.13;;;;;;;;;;5022939;28;20477;-63
2023/10/31 05:06:54;;;;;;;18.73;10.82;;;;;;;;;;5021839;28;20503;-63
2023/10/31 05:09:21;;;;;;;16.60;10.60;;;;;;;;;;5020233;28;20420;-63
2023/10/31 05:11:48;;;;;;;14.48;9.57;;;;;;;;;;5016866;28;20413;-63
2023/10/31 05:14:16;;;;;;;13.95;9.73;;;;;;;;;;5021935;28;20419;-63
2023/10/31 05:16:44;;;;;;;14.93;10.23;;;;;;;;;;5022987;28;20439;-63
2023/10/31 05:19:11;;;;;;;14.40;9.98;;;;;;;;;;5020762;28;20518;-63
2023/10/31 05:21:38;;;;;;;15.55;10.23;;;;;;;;;;5021810;28;20774;-63
2023/10/31 05:24:05;;;;;;;14.13;9.30;;;;;;;;;;5022869;28;20474;-63
2023/10/31 05:26:32;;;;;;;16.17;10.20;;;;;;;;;;5016819;28;20458;-63
2023/10/31 05:28:59;;;;;;;13.93;9.18;;;;;;;;;;5021250;28;20419;-63
2023/10/31 05:31:27;;;;;;;15.95;10.50;;;;;;;;;;5022328;28;20415;-63
2023/10/31 05:33:54;;;;;;;16.35;11.15;;;;;;;;;;5014863;28;20483;-61
2023/10/31 05:36:22;;;;;;;16.07;10.97;;;;;;;;;;5021675;28;20841;-61
2023/10/31 05:38:49;;;;;;;15.30;10.63;;;;;;;;;;5013741;28;20527;-61
2023/10/31 05:41:16;;;;;;;18.40;11.57;;;;;;;;;;5021511;28;20415;-61
2023/10/31 05:43:43;;;;;;;18.65;12.27;;;;;;;;;;5020326;28;20416;-61
2023/10/31 05:46:12;;;;;;;19.05;12.25;;;;;;;;;;5019617;28;20498;-61
2023/10/31 05:48:41;;;;;;;18.60;12.77;;;;;;;;;;5015970;28;20473;-63
2023/10/31 05:51:12;;;;;;;18.93;12.93;;;;;;;;;;5020948;28;20556;-61
2023/10/31 05:53:39;;;;;;;19.92;13.20;;;;;;;;;;5022239;28;20415;-61
2023/10/31 05:56:07;;;;;;;19.67;13.85;;;;;;;;;;5019974;28;20958;-60
2023/10/31 05:58:34;;;;;;;23.30;13.93;;;;;;;;;;5020338;28;22846;-61
2023/10/31 06:01:01;;;;;;;22.00;14.35;;;;;;;;;;5022557;28;20473;-60
2023/10/31 06:03:28;;;;;;;24.75;15.40;;;;;;;;;;5019799;28;20953;-60
2023/10/31 06:05:57;;;;;;;22.70;15.63;;;;;;;;;;5021309;28;20415;-60
2023/10/31 06:08:27;;;;;;;22.23;15.25;;;;;;;;;;5016943;28;20413;-61
2023/10/31 06:10:54;;;;;;;22.17;15.30;;;;;;;;;;5021406;28;20410;-61
2023/10/31 06:13:21;;;;;;;22.92;15.82;;;;;;;;;;5022088;28;20414;-61
2023/10/31 06:15:48;;;;;;;24.27;15.48;;;;;;;;;;5018176;28;20417;-61
2023/10/31 06:18:15;;;;;;;23.52;16.00;;;;;;;;;;5021181;28;20518;-61
2023/10/31 06:20:42;;;;;;;22.30;16.02;;;;;;;;;;5018563;28;20486;-61
2023/10/31 06:23:11;;;;;;;22.70;16.35;;;;;;;;;;5021585;28;20418;-61
2023/10/31 06:25:38;;;;;;;23.50;16.13;;;;;;;;;;5020184;28;20416;-61
2023/10/31 06:28:05;;;;;;;24.15;16.92;;;;;;;;;;5019753;28;20514;-61
2023/10/31 06:30:32;;;;;;;22.98;16.15;;;;;;;;;;5021862;28;20420;-61
2023/10/31 06:33:00;;;;;;;23.35;15.65;;;;;;;;;;5021187;28;20414;-62
2023/10/31 06:35:27;;;;;;;24.10;15.55;;;;;;;;;;5019768;28;20489;-62
2023/10/31 06:37:55;;;;;;;22.98;15.70;;;;;;;;;;5018741;28;20854;-61
2023/10/31 06:40:23;;;;;;;23.45;14.95;;;;;;;;;;5019564;28;20508;-61
2023/10/31 06:42:50;;;;;;;22.15;16.15;;;;;;;;;;5019647;28;20475;-61
2023/10/31 06:45:17;;;;;;;24.23;16.65;;;;;;;;;;5021077;28;20832;-62
2023/10/31 06:47:44;;;;;;;22.83;16.23;;;;;;;;;;5018862;28;20515;-62
2023/10/31 06:50:11;;;;;;;22.67;16.83;;;;;;;;;;5019622;28;20835;-61
2023/10/31 06:52:38;;;;;;;23.55;16.23;;;;;;;;;;5020893;28;20814;-61
2023/10/31 06:55:06;;;;;;;24.42;16.52;;;;;;;;;;5019139;28;20479;-61
2023/10/31 06:57:34;;;;;;;21.38;16.33;;;;;;;;;;5011218;28;20891;-63
2023/10/31 07:00:01;;;;;;;20.52;14.82;;;;;;;;;;5004881;28;20449;-63
2023/10/31 07:02:28;;;;;;;19.85;14.75;;;;;;;;;;5018026;28;20432;-65
2023/10/31 07:04:55;;;;;;;20.48;14.80;;;;;;;;;;5009806;28;20422;-64
2023/10/31 07:07:22;;;;;;;20.23;14.63;;;;;;;;;;5018350;28;20902;-63
2023/10/31 07:09:49;;;;;;;20.30;14.82;;;;;;;;;;5008592;28;20420;-61
2023/10/31 07:12:16;;;;;;;20.75;15.40;;;;;;;;;;5013998;28;20834;-62
2023/10/31 07:14:45;;;;;;;18.38;14.48;;;;;;;;;;5020522;28;20501;-62
2023/10/31 07:17:12;;;;;;;18.65;14.00;;;;;;;;;;5014841;28;20412;-62
2023/10/31 07:19:39;;;;;;;18.75;14.55;;;;;;;;;;5017780;28;20850;-63
2023/10/31 07:22:06;;;;;;;17.23;13.98;;;;;;;;;;5019071;28;20446;-63
2023/10/31 07:24:33;;;;;;;18.02;14.95;;;;;;;;;;5015562;28;20463;-64
2023/10/31 07:27:00;;;;;;;20.33;15.15;;;;;;;;;;5018732;28;20444;-63
2023/10/31 07:29:27;;;;;;;20.50;14.38;;;;;;;;;;5017830;28;20408;-63
2023/10/31 07:31:55;;;;;;;18.38;14.73;;;;;;;;;;5017241;28;21162;-63
2023/10/31 07:34:22;;;;;;;19.15;14.40;;;;;;;;;;5016981;28;20479;-63
2023/10/31 07:36:49;;;;;;;17.77;13.50;;;;;;;;;;5017753;28;20473;-63
2023/10/31 07:39:16;;;;;;;14.68;12.20;;;;;;;;;;5018657;28;20429;-63
2023/10/31 07:41:43;;;;;;;14.70;11.80;;;;;;;;;;5018916;28;20423;-62
2023/10/31 07:44:10;;;;;;;16.50;11.52;;;;;;;;;;5019853;28;20914;-63
2023/10/31 07:46:37;;;;;;;16.00;11.65;;;;;;;;;;5017297;28;20888;-63
2023/10/31 07:49:05;;;;;;;15.18;12.50;;;;;;;;;;5018966;28;20415;-67
2023/10/31 07:51:32;;;;;;;16.67;12.40;;;;;;;;;;5015151;28;20958;-63
2023/10/31 07:53:59;;;;;;;18.67;13.05;;;;;;;;;;5015121;28;20439;-63
2023/10/31 07:56:26;;;;;;;16.23;12.30;;;;;;;;;;5014536;28;20537;-65
2023/10/31 07:58:54;;;;;;;17.63;13.43;;;;;;;;;;5015738;28;20757;-63
2023/10/31 08:01:21;;;;;;;16.17;13.32;;;;;;;;;;5019819;28;20426;-62
2023/10/31 08:03:48;;;;;;;17.55;13.60;;;;;;;;;;5019596;28;20910;-63
2023/10/31 08:06:17;;;;;;;15.55;13.60;;;;;;;;;;5021628;28;20403;-62
2023/10/31 08:08:44;;;;;;;17.52;14.07;;;;;;;;;;5021751;28;20419;-62
2023/10/31 08:11:11;;;;;;;16.63;13.73;;;;;;;;;;5021419;28;20413;-62
2023/10/31 08:13:39;;;;;;;17.45;13.68;;;;;;;;;;5020780;28;20417;-64
2023/10/31 08:16:06;;;;;;;17.73;14.15;;;;;;;;;;5022160;28;20893;-61
2023/10/31 08:18:33;;;;;;;17.17;13.98;;;;;;;;;;5020258;28;21050;-62
2023/10/31 08:21:00;;;;;;;19.27;14.00;;;;;;;;;;5020715;28;20919;-62
2023/10/31 08:23:29;;;;;;;17.85;13.70;;;;;;;;;;5023315;28;20414;-61
2023/10/31 08:25:56;;;;;;;17.95;13.55;;;;;;;;;;5021601;28;20915;-62
2023/10/31 08:28:24;;;;;;;17.48;14.35;;;;;;;;;;5020658;28;20409;-62
2023/10/31 08:30:51;;;;;;;17.77;13.98;;;;;;;;;;5022834;28;20537;-62
2023/10/31 08:33:18;;;;;;;16.30;13.85;;;;;;;;;;5020197;28;20467;-63
2023/10/31 08:35:47;;;;;;;17.13;14.75;;;;;;;;;;5022703;28;20461;-64
2023/10/31 08:38:14;;;;;;;17.40;14.30;;;;;;;;;;5022211;28;20427;-62
2023/10/31 08:40:42;;;;;;;17.75;13.80;;;;;;;;;;5021690;28;20900;-65
2023/10/31 08:43:09;;;;;;;16.38;14.00;;;;;;;;;;5022784;28;20821;-64
2023/10/31 08:45:36;;;;;;;16.20;13.38;;;;;;;;;;5021456;28;20415;-64
2023/10/31 08:48:03;;;;;;;17.58;14.18;;;;;;;;;;5021033;28;20846;-63
2023/10/31 08:50:31;;;;;;;18.58;13.60;;;;;;;;;;5018565;28;20408;-64
2023/10/31 08:52:58;;;;;;;16.38;12.65;;;;;;;;;;5022475;28;20407;-63
2023/10/31 08:55:25;;;;;;;16.70;13.23;;;;;;;;;;5020811;28;20467;-62
2023/10/31 08:57:54;;;;;;;15.40;13.27;;;;;;;;;;5015534;28;20426;-62
2023/10/31 09:00:21;;;;;;;15.18;12.75;;;;;;;;;;5018758;28;20523;-62
2023/10/31 09:02:48;;;;;;;15.33;12.37;;;;;;;;;;5020448;28;20445;-62
2023/10/31 09:05:15;;;;;;;14.47;11.87;;;;;;;;;;5019422;28;20407;-62
2023/10/31 09:07:42;;;;;;;14.18;11.98;;;;;;;;;;5021560;28;20521;-62
2023/10/31 09:10:09;;;;;;;13.77;10.82;;;;;;;;;;5020201;28;20788;-62
2023/10/31 09:12:37;;;;;;;13.63;10.53;;;;;;;;;;5027309;28;20443;-62
2023/10/31 09:15:05;;;;;;;10.48;9.38;;;;;;;;;;5019554;28;20492;-62
2023/10/31 09:17:32;;;;;;;11.38;9.50;;;;;;;;;;5020935;28;20897;-62
2023/10/31 09:20:00;;;;;;;11.60;9.23;;;;;;;;;;5021025;28;20426;-62
2023/10/31 09:22:26;;;;;;;10.85;8.10;;;;;;;;;;5018993;28;20500;-62
2023/10/31 09:24:53;;;;;;;11.10;9.05;;;;;;;;;;5021082;28;20411;-62
2023/10/31 09:27:20;;;;;;;9.85;8.40;;;;;;;;;;5015942;28;20416;-62
2023/10/31 09:29:47;;;;;;;9.73;8.73;;;;;;;;;;5021510;28;20434;-62
2023/10/31 09:32:17;;;;;;;10.68;8.50;;;;;;;;;;5017129;28;20478;-61
2023/10/31 09:34:44;;;;;;;8.65;7.43;;;;;;;;;;5019867;28;20427;-62
2023/10/31 09:37:11;;;;;;;8.70;7.55;;;;;;;;;;5016416;28;20421;-62
2023/10/31 09:39:39;;;;;;;11.10;7.60;;;;;;;;;;5019745;28;20540;-62
2023/10/31 09:42:07;;;;;;;9.68;7.72;;;;;;;;;;5022529;28;20924;-64
2023/10/31 09:44:34;;;;;;;11.95;7.90;;;;;;;;;;5015700;28;20434;-64
2023/10/31 09:47:02;;;;;;;8.82;7.05;;;;;;;;;;5005010;28;20931;-64
2023/10/31 09:49:31;;;;;;;9.05;7.70;;;;;;;;;;5018775;28;20922;-63
2023/10/31 09:51:58;;;;;;;9.75;7.43;;;;;;;;;;5020136;28;20471;-62
2023/10/31 09:54:27;;;;;;;9.55;7.35;;;;;;;;;;5014850;28;20475;-61
2023/10/31 09:56:54;;;;;;;9.50;7.38;;;;;;;;;;5014848;28;20961;-61
2023/10/31 09:59:21;;;;;;;8.68;7.03;;;;;;;;;;5023243;28;20425;-62
2023/10/31 10:01:48;;;;;;;10.05;7.13;;;;;;;;;;5016771;28;20513;-62
2023/10/31 10:04:17;;;;;;;11.45;7.53;;;;;;;;;;5020773;28;20900;-61
2023/10/31 10:06:52;;;;;;;7.90;7.10;;;;;;;;;;5020169;28;20430;-62
2023/10/31 10:09:19;;;;;;;8.70;7.32;;;;;;;;;;5016379;28;20415;-61
2023/10/31 10:11:46;;;;;;;10.93;7.63;;;;;;;;;;5019449;28;20408;-61
2023/10/31 10:14:14;;;;;;;9.52;7.93;;;;;;;;;;5021655;28;20826;-60
2023/10/31 10:16:41;;;;;;;9.85;7.90;;;;;;;;;;5020137;28;20885;-61
2023/10/31 10:19:19;;;;;;;10.73;7.90;;;;;;;;;;5023870;28;20411;-61
2023/10/31 10:21:49;;;;;;;11.18;8.30;;;;;;;;;;5023124;28;20436;-61
2023/10/31 10:24:18;;;;;;;10.60;7.67;;;;;;;;;;5021520;28;20415;-62
2023/10/31 10:26:45;;;;;;;9.65;8.15;;;;;;;;;;5019276;28;20432;-59
2023/10/31 10:29:12;;;;;;;13.15;8.35;;;;;;;;;;5019078;28;20418;-61
2023/10/31 10:31:40;;;;;;;12.82;9.23;;;;;;;;;;5024448;28;20514;-61
2023/10/31 10:34:07;;;;;;;10.13;8.23;;;;;;;;;;5019742;28;20419;-59
2023/10/31 10:36:35;;;;;;;11.85;8.60;;;;;;;;;;5018553;28;20421;-61
2023/10/31 10:39:03;;;;;;;9.70;7.88;;;;;;;;;;5013705;28;20419;-61
2023/10/31 10:41:33;;;;;;;11.07;8.05;;;;;;;;;;5020137;28;20462;-64
2023/10/31 10:44:05;;;;;;;10.82;7.78;;;;;;;;;;5024558;28;20454;-61
2023/10/31 10:46:34;;;;;;;10.88;7.78;;;;;;;;;;5022178;28;20908;-61
2023/10/31 10:49:04;;;;;;;11.70;8.27;;;;;;;;;;5020875;28;20433;-61
2023/10/31 10:51:36;;;;;;;10.13;8.00;;;;;;;;;;5007779;28;20413;-61
2023/10/31 10:54:06;;;;;;;9.88;7.72;;;;;;;;;;5019248;28;20418;-61
2023/10/31 10:56:37;;;;;;;12.73;7.65;;;;;;;;;;5022604;28;20411;-65
2023/10/31 10:59:05;;;;;;;10.48;7.32;;;;;;;;;;5022548;28;20469;-66
2023/10/31 11:01:32;;;;;;;9.63;7.40;;;;;;;;;;5023464;28;20434;-66
2023/10/31 11:04:00;;;;;;;15.50;8.35;;;;;;;;;;5018418;28;20483;-65
2023/10/31 11:06:28;;;;;;;11.98;7.38;;;;;;;;;;5017840;28;20913;-67
2023/10/31 11:08:56;;;;;;;11.13;8.05;;;;;;;;;;5017378;28;20495;-66
2023/10/31 11:11:24;;;;;;;11.95;7.70;;;;;;;;;;5016094;28;20417;-66
2023/10/31 11:13:52;;;;;;;10.25;6.95;;;;;;;;;;5020890;28;20470;-65
2023/10/31 11:16:25;;;;;;;9.10;7.15;;;;;;;;;;5013868;28;20419;-65
2023/10/31 11:18:52;;;;;;;11.27;6.93;;;;;;;;;;5011750;28;20837;-65
2023/10/31 11:21:19;;;;;;;9.57;6.73;;;;;;;;;;5014980;28;20480;-65
2023/10/31 11:23:46;;;;;;;9.90;6.03;;;;;;;;;;5013698;28;20763;-65
2023/10/31 11:26:13;;;;;;;10.63;5.93;;;;;;;;;;5015069;28;20424;-66
2023/10/31 11:28:40;;;;;;;9.82;5.97;;;;;;;;;;5017125;28;20804;-66
2023/10/31 11:31:09;;;;;;;10.07;5.22;;;;;;;;;;5016066;28;20459;-65
2023/10/31 11:33:40;;;;;;;6.78;4.55;;;;;;;;;;5016425;28;20419;-66
2023/10/31 11:36:07;;;;;;;8.13;4.93;;;;;;;;;;5015777;28;20424;-65
2023/10/31 11:38:36;;;;;;;6.88;4.53;;;;;;;;;;5021061;28;20886;-66
2023/10/31 11:41:04;;;;;;;8.25;4.70;;;;;;;;;;5023576;28;20432;-65
2023/10/31 11:43:50;;;;;;;10.88;4.55;;;;;;;;;;5028666;28;20477;-64
2023/10/31 11:46:22;;;;;;;8.48;4.97;;;;;;;;;;5024253;28;20414;-63
2023/10/31 11:48:51;;;;;;;10.35;4.60;;;;;;;;;;5022513;28;20508;-62
2023/10/31 11:51:18;;;;;;;6.85;4.45;;;;;;;;;;5020510;28;20932;-63
2023/10/31 11:53:45;;;;;;;7.70;3.90;;;;;;;;;;5021516;28;20424;-65
2023/10/31 11:56:13;;;;;;;7.57;4.20;;;;;;;;;;5022158;28;20465;-66
2023/10/31 11:58:40;;;;;;;6.07;3.50;;;;;;;;;;5026090;28;20472;-65
2023/10/31 12:01:08;;;;;;;7.07;3.42;;;;;;;;;;5024008;28;20846;-62
2023/10/31 12:03:40;;;;;;;7.43;3.53;;;;;;;;;;5020823;28;21026;-64
2023/10/31 12:06:08;;;;;;;7.43;3.50;;;;;;;;;;5022729;28;20440;-65
2023/10/31 12:08:35;;;;;;;6.33;3.10;;;;;;;;;;5021744;28;20420;-65
2023/10/31 12:11:07;;;;;;;4.68;3.13;;;;;;;;;;5020988;28;20413;-66
2023/10/31 12:13:34;;;;;;;6.20;3.00;;;;;;;;;;5017914;28;21112;-64
2023/10/31 12:16:01;;;;;;;5.23;2.70;;;;;;;;;;5022043;28;20418;-62
2023/10/31 12:18:28;;;;;;;7.00;2.70;;;;;;;;;;5023791;28;20488;-62
2023/10/31 12:20:57;;;;;;;9.43;2.95;;;;;;;;;;5025426;28;20435;-63
2023/10/31 12:23:24;;;;;;;7.55;3.30;;;;;;;;;;5029875;28;20452;-66
2023/10/31 12:25:51;;;;;;;5.13;2.70;;;;;;;;;;5023867;28;20420;-65
2023/10/31 12:28:19;;;;;;;7.97;2.80;;;;;;;;;;5026970;28;20418;-61
2023/10/31 12:30:47;;;;;;;6.32;2.40;;;;;;;;;;5020179;28;20498;-61
2023/10/31 12:33:14;;;;;;;7.18;2.67;;;;;;;;;;5027088;28;20543;-63
2023/10/31 12:35:41;;;;;;;4.10;2.05;;;;;;;;;;5025932;28;20454;-63
2023/10/31 12:38:11;;;;;;;7.28;2.60;;;;;;;;;;5020361;28;20476;-63
2023/10/31 12:40:38;;;;;;;4.55;2.20;;;;;;;;;;5020580;28;20520;-63
2023/10/31 12:43:06;;;;;;;4.78;2.20;;;;;;;;;;5025928;28;20423;-65
2023/10/31 12:45:33;;;;;;;6.35;2.60;;;;;;;;;;5019860;28;20438;-63
2023/10/31 12:48:04;;;;;;;5.95;2.80;;;;;;;;;;5019541;28;20416;-62
2023/10/31 12:50:31;;;;;;;5.97;3.00;;;;;;;;;;5021031;28;20474;-62
2023/10/31 12:52:59;;;;;;;9.05;3.22;;;;;;;;;;5019312;28;20416;-62
2023/10/31 12:55:29;;;;;;;7.25;2.70;;;;;;;;;;5024866;28;20418;-61
2023/10/31 12:57:56;;;;;;;6.07;2.42;;;;;;;;;;5019354;28;20552;-62
2023/10/31 13:00:28;;;;;;;5.55;2.40;;;;;;;;;;5026077;28;20898;-62
2023/10/31 13:03:00;;;;;;;6.07;2.28;;;;;;;;;;5020439;28;20753;-62
2023/10/31 13:05:28;;;;;;;6.95;2.40;;;;;;;;;;5021599;28;20419;-62
2023/10/31 13:07:56;;;;;;;5.80;2.40;;;;;;;;;;5020430;28;20407;-62
2023/10/31 13:10:24;;;;;;;3.50;2.15;;;;;;;;;;5022553;28;20447;-64
2023/10/31 13:12:53;;;;;;;4.55;2.00;;;;;;;;;;5019703;28;20482;-63
2023/10/31 13:15:22;;;;;;;4.22;2.25;;;;;;;;;;5022026;28;20411;-64
2023/10/31 13:17:49;;;;;;;3.92;2.35;;;;;;;;;;5020504;28;20498;-62
2023/10/31 13:20:17;;;;;;;4.00;2.10;;;;;;;;;;5019497;28;20471;-63
2023/10/31 13:22:44;;;;;;;5.13;2.20;;;;;;;;;;5021424;28;20423;-62
2023/10/31 13:25:12;;;;;;;3.35;2.00;;;;;;;;;;5021411;28;20448;-63
2023/10/31 13:27:40;;;;;;;3.50;2.20;;;;;;;;;;5018296;28;20458;-63
2023/10/31 13:30:10;;;;;;;3.67;1.95;;;;;;;;;;5020653;28;20879;-63
2023/10/31 13:32:37;;;;;;;5.18;2.20;;;;;;;;;;5021737;28;20411;-63
2023/10/31 13:35:05;;;;;;;5.07;2.75;;;;;;;;;;5021257;28;20426;-63
2023/10/31 13:37:32;;;;;;;4.43;2.30;;;;;;;;;;5020853;28;20891;-63
2023/10/31 13:39:59;;;;;;;3.67;1.85;;;;;;;;;;5019346;28;20417;-63
2023/10/31 13:42:26;;;;;;;3.70;2.20;;;;;;;;;;5021032;28;20770;-63
2023/10/31 13:44:53;;;;;;;3.45;2.25;;;;;;;;;;5019395;28;20413;-64
2023/10/31 13:47:21;;;;;;;3.65;2.53;;;;;;;;;;5019483;28;20886;-63
2023/10/31 13:49:48;;;;;;;3.03;2.22;;;;;;;;;;5021428;28;20494;-64
2023/10/31 13:52:16;;;;;;;3.75;2.15;;;;;;;;;;5022591;28;20769;-64
2023/10/31 13:54:43;;;;;;;4.30;2.20;;;;;;;;;;5020794;28;20416;-61
2023/10/31 13:57:10;;;;;;;3.75;2.22;;;;;;;;;;5021580;28;20483;-63
2023/10/31 13:59:37;;;;;;;4.03;2.22;;;;;;;;;;5021264;28;20477;-63
2023/10/31 14:02:04;;;;;;;3.70;2.17;;;;;;;;;;5020952;28;20524;-63
2023/10/31 14:04:33;;;;;;;3.85;2.15;;;;;;;;;;5022182;28;20426;-64
2023/10/31 14:07:01;;;;;;;4.13;2.38;;;;;;;;;;5019809;28;20886;-63
2023/10/31 14:09:28;;;;;;;5.40;2.58;;;;;;;;;;5020259;28;20452;-63
2023/10/31 14:11:55;;;;;;;4.50;2.53;;;;;;;;;;5018490;28;20456;-64
2023/10/31 14:14:22;;;;;;;6.07;2.30;;;;;;;;;;5022264;28;20436;-64
2023/10/31 14:16:49;;;;;;;4.15;2.38;;;;;;;;;;5012488;28;20549;-64
2023/10/31 14:19:17;;;;;;;3.35;2.47;;;;;;;;;;5025518;28;20806;-65
2023/10/31 14:21:46;;;;;;;3.83;2.47;;;;;;;;;;5018129;28;20429;-64
2023/10/31 14:24:13;;;;;;;5.03;2.83;;;;;;;;;;5019488;28;20532;-65
2023/10/31 14:26:42;;;;;;;3.88;2.65;;;;;;;;;;5021495;28;20469;-63
2023/10/31 14:29:10;;;;;;;4.03;2.55;;;;;;;;;;5021084;28;20476;-62
2023/10/31 14:31:41;;;;;;;3.65;2.80;;;;;;;;;;5020740;28;20411;-63
2023/10/31 14:34:08;;;;;;;3.80;2.63;;;;;;;;;;5014654;28;20472;-62